createdAt,value
2019-03-25T00:00:15.587Z,7.58
2019-03-25T00:01:15.508Z,7.64
2019-03-25T00:02:15.498Z,7.62
2019-03-25T00:03:15.494Z,7.51
2019-03-25T00:04:15.484Z,7.47
2019-03-25T00:05:15.478Z,7.48
2019-03-25T00:06:15.471Z,7.46
2019-03-25T00:07:15.465Z,7.48
2019-03-25T00:08:15.509Z,7.48
2019-03-25T00:09:15.445Z,7.53
2019-03-25T00:10:15.445Z,7.55
2019-03-25T00:11:15.429Z,7.58
2019-03-25T00:12:15.425Z,7.61
2019-03-25T00:13:15.415Z,7.61
2019-03-25T00:14:15.410Z,7.62
2019-03-25T00:15:15.399Z,7.7
2019-03-25T00:16:15.142Z,7.66
2019-03-25T00:17:15.393Z,7.7
2019-03-25T00:18:15.382Z,7.75
2019-03-25T00:19:15.369Z,7.84
2019-03-25T00:20:15.356Z,7.83
2019-03-25T00:21:15.107Z,7.8
2019-03-25T00:22:15.341Z,7.87
2019-03-25T00:23:15.345Z,7.84
2019-03-25T00:24:15.337Z,7.88
2019-03-25T00:25:15.318Z,7.93
2019-03-25T00:26:15.321Z,7.84
2019-03-25T00:27:15.412Z,7.87
2019-03-25T00:28:16.371Z,7.75
2019-03-25T00:29:15.285Z,7.69
2019-03-25T00:30:15.283Z,7.67
2019-03-25T00:31:15.289Z,7.61
2019-03-25T00:32:15.269Z,7.61
2019-03-25T00:33:15.257Z,7.53
2019-03-25T00:34:15.250Z,7.44
2019-03-25T00:35:15.241Z,7.47
2019-03-25T00:36:15.231Z,7.48
2019-03-25T00:37:15.235Z,7.43
2019-03-25T00:38:15.220Z,7.39
2019-03-25T00:39:15.213Z,7.37
2019-03-25T00:40:15.201Z,7.23
2019-03-25T00:41:15.191Z,7.36
2019-03-25T00:42:15.184Z,7.19
2019-03-25T00:43:15.179Z,7.23
2019-03-25T00:44:15.179Z,7.21
2019-03-25T00:45:15.165Z,7.1
2019-03-25T00:46:15.184Z,7.13
2019-03-25T00:47:15.153Z,7.1
2019-03-25T00:48:15.138Z,7.05
2019-03-25T00:49:15.130Z,7.08
2019-03-25T00:50:15.119Z,7.07
2019-03-25T00:51:15.115Z,7.11
2019-03-25T00:52:15.107Z,7.08
2019-03-25T00:53:15.102Z,7.08
2019-03-25T00:54:15.095Z,7.11
2019-03-25T00:55:14.838Z,7.1
2019-03-25T00:56:15.074Z,7.19
2019-03-25T00:57:15.067Z,7.18
2019-03-25T00:58:15.220Z,7.18
2019-03-25T00:59:15.065Z,7.13
2019-03-25T01:00:15.049Z,7.26
2019-03-25T01:01:14.784Z,7.22
2019-03-25T01:02:15.035Z,7.33
2019-03-25T01:03:15.027Z,7.31
2019-03-25T01:04:14.762Z,7.26
2019-03-25T01:05:15.005Z,7.32
2019-03-25T01:06:15.002Z,7.36
2019-03-25T01:07:14.991Z,7.36
2019-03-25T01:08:14.730Z,7.25
2019-03-25T01:09:14.995Z,7.22
2019-03-25T01:10:14.970Z,7.22
2019-03-25T01:11:14.961Z,7.23
2019-03-25T01:12:14.950Z,7.13
2019-03-25T01:13:14.962Z,7.13
2019-03-25T01:14:14.935Z,7.19
2019-03-25T01:15:14.936Z,7.15
2019-03-25T01:16:14.925Z,7.11
2019-03-25T01:17:14.915Z,7.22
2019-03-25T01:18:21.806Z,7.15
2019-03-25T01:19:14.894Z,7.15
2019-03-25T01:20:15.016Z,7.21
2019-03-25T01:21:14.885Z,7.13
2019-03-25T01:22:14.874Z,7.19
2019-03-25T01:23:14.870Z,7.15
2019-03-25T01:24:14.859Z,7.15
2019-03-25T01:25:14.851Z,7.18
2019-03-25T01:26:14.853Z,7.22
2019-03-25T01:27:14.836Z,7.13
2019-03-25T01:28:14.830Z,7.22
2019-03-25T01:29:15.116Z,7.21
2019-03-25T01:30:14.811Z,7.26
2019-03-25T01:31:14.801Z,7.28
2019-03-25T01:32:14.798Z,7.23
2019-03-25T01:33:14.803Z,7.31
2019-03-25T01:34:14.777Z,7.37
2019-03-25T01:35:14.774Z,7.33
2019-03-25T01:36:14.514Z,7.31
2019-03-25T01:37:14.753Z,7.31
2019-03-25T01:38:14.747Z,7.28
2019-03-25T01:39:14.741Z,7.31
2019-03-25T01:40:14.732Z,7.29
2019-03-25T01:41:14.722Z,7.36
2019-03-25T01:42:16.341Z,7.48
2019-03-25T01:43:14.775Z,7.48
2019-03-25T01:44:14.703Z,7.47
2019-03-25T01:45:14.692Z,7.55
2019-03-25T01:46:14.686Z,7.59
2019-03-25T01:47:14.675Z,7.59
2019-03-25T01:48:14.674Z,7.61
2019-03-25T01:49:14.671Z,7.56
2019-03-25T01:50:14.654Z,7.62
2019-03-25T01:51:14.393Z,7.53
2019-03-25T01:52:14.641Z,7.48
2019-03-25T01:53:14.635Z,7.59
2019-03-25T01:54:14.624Z,7.62
2019-03-25T01:55:18.566Z,7.69
2019-03-25T01:56:14.607Z,7.55
2019-03-25T01:57:14.599Z,7.61
2019-03-25T01:58:14.592Z,7.66
2019-03-25T01:59:14.588Z,7.58
2019-03-25T02:00:14.592Z,7.69
2019-03-25T02:01:14.568Z,7.7
2019-03-25T02:02:14.559Z,7.74
2019-03-25T02:03:14.557Z,7.7
2019-03-25T02:04:14.309Z,7.67
2019-03-25T02:05:14.542Z,7.72
2019-03-25T02:06:14.527Z,7.67
2019-03-25T02:07:14.528Z,7.64
2019-03-25T02:08:14.529Z,7.64
2019-03-25T02:09:14.506Z,7.67
2019-03-25T02:10:14.499Z,7.72
2019-03-25T02:11:14.489Z,7.58
2019-03-25T02:12:14.482Z,7.58
2019-03-25T02:13:14.490Z,7.66
2019-03-25T02:14:14.479Z,7.56
2019-03-25T02:15:14.459Z,7.64
2019-03-25T02:16:14.601Z,7.53
2019-03-25T02:17:14.445Z,7.62
2019-03-25T02:18:14.433Z,7.59
2019-03-25T02:19:14.427Z,7.51
2019-03-25T02:20:25.478Z,7.44
2019-03-25T02:21:14.421Z,7.51
2019-03-25T02:22:14.412Z,7.4
2019-03-25T02:23:15.013Z,7.37
2019-03-25T02:24:14.655Z,7.37
2019-03-25T02:25:24.740Z,7.4
2019-03-25T02:26:14.373Z,7.39
2019-03-25T02:27:14.363Z,7.46
2019-03-25T02:28:14.353Z,7.39
2019-03-25T02:29:14.346Z,7.37
2019-03-25T02:30:14.342Z,7.31
2019-03-25T02:31:14.367Z,7.4
2019-03-25T02:32:14.532Z,7.25
2019-03-25T02:33:14.321Z,7.29
2019-03-25T02:34:14.316Z,7.23
2019-03-25T02:35:14.311Z,7.29
2019-03-25T02:36:14.295Z,7.31
2019-03-25T02:37:14.289Z,7.26
2019-03-25T02:38:14.287Z,7.31
2019-03-25T02:39:14.287Z,7.25
2019-03-25T02:40:14.270Z,7.22
2019-03-25T02:41:14.265Z,7.21
2019-03-25T02:42:14.251Z,7.23
2019-03-25T02:43:14.026Z,7.15
2019-03-25T02:44:13.736Z,7.15
2019-03-25T02:45:14.226Z,7.13
2019-03-25T02:46:14.221Z,7.11
2019-03-25T02:47:14.203Z,7.07
2019-03-25T02:48:14.202Z,7.13
2019-03-25T02:49:14.199Z,7.1
2019-03-25T02:50:14.185Z,7.05
2019-03-25T02:51:14.175Z,7.07
2019-03-25T02:52:14.178Z,7.03
2019-03-25T02:53:14.164Z,7.01
2019-03-25T02:54:13.911Z,6.96
2019-03-25T02:55:14.145Z,7
2019-03-25T02:56:14.150Z,7.01
2019-03-25T02:57:14.186Z,6.97
2019-03-25T02:58:14.139Z,7
2019-03-25T02:59:14.122Z,6.9
2019-03-25T03:00:13.929Z,6.92
2019-03-25T03:01:14.091Z,6.92
2019-03-25T03:02:14.088Z,6.87
2019-03-25T03:03:14.375Z,6.9
2019-03-25T03:04:14.073Z,6.92
2019-03-25T03:05:14.083Z,6.8
2019-03-25T03:06:14.063Z,6.83
2019-03-25T03:07:14.062Z,6.82
2019-03-25T03:08:14.111Z,6.86
2019-03-25T03:09:13.788Z,6.78
2019-03-25T03:10:14.031Z,6.78
2019-03-25T03:11:14.014Z,6.78
2019-03-25T03:12:14.006Z,6.82
2019-03-25T03:13:14.049Z,6.77
2019-03-25T03:14:17.692Z,6.75
2019-03-25T03:15:14.007Z,6.71
2019-03-25T03:16:13.985Z,6.8
2019-03-25T03:17:13.969Z,6.85
2019-03-25T03:18:13.974Z,6.83
2019-03-25T03:19:13.712Z,6.83
2019-03-25T03:20:13.943Z,6.86
2019-03-25T03:21:13.941Z,6.83
2019-03-25T03:22:13.957Z,6.87
2019-03-25T03:23:13.921Z,6.89
2019-03-25T03:24:13.912Z,6.85
2019-03-25T03:25:13.670Z,6.87
2019-03-25T03:26:13.902Z,6.9
2019-03-25T03:27:13.913Z,6.96
2019-03-25T03:28:13.919Z,6.95
2019-03-25T03:29:13.934Z,6.96
2019-03-25T03:30:13.885Z,6.97
2019-03-25T03:31:13.869Z,7
2019-03-25T03:32:13.879Z,7.04
2019-03-25T03:33:13.862Z,7
2019-03-25T03:34:13.937Z,7.01
2019-03-25T03:35:14.113Z,7.07
2019-03-25T03:36:13.816Z,7.08
2019-03-25T03:37:13.829Z,7.11
2019-03-25T03:38:13.811Z,7.07
2019-03-25T03:39:13.795Z,7.08
2019-03-25T03:40:13.791Z,7.07
2019-03-25T03:41:13.783Z,7.11
2019-03-25T03:42:13.773Z,7.11
2019-03-25T03:43:13.756Z,7.23
2019-03-25T03:44:13.750Z,7.15
2019-03-25T03:45:13.757Z,7.21
2019-03-25T03:46:13.737Z,7.1
2019-03-25T03:47:13.729Z,7.21
2019-03-25T03:48:13.729Z,7.11
2019-03-25T03:49:13.721Z,7.11
2019-03-25T03:50:16.520Z,7.1
2019-03-25T03:51:13.695Z,7.07
2019-03-25T03:52:13.687Z,7.11
2019-03-25T03:53:13.680Z,7.07
2019-03-25T03:54:13.678Z,7.11
2019-03-25T03:55:13.687Z,7.1
2019-03-25T03:56:18.735Z,7.05
2019-03-25T03:57:13.657Z,7.08
2019-03-25T03:58:13.647Z,7.11
2019-03-25T03:59:13.636Z,7.15
2019-03-25T04:00:13.623Z,7.11
2019-03-25T04:01:13.617Z,7.11
2019-03-25T04:02:13.620Z,7.15
2019-03-25T04:03:13.595Z,7.19
2019-03-25T04:04:13.342Z,7.18
2019-03-25T04:05:13.582Z,7.15
2019-03-25T04:06:13.577Z,7.14
2019-03-25T04:07:13.561Z,7.13
2019-03-25T04:08:13.558Z,7.26
2019-03-25T04:09:13.321Z,7.21
2019-03-25T04:10:13.543Z,7.29
2019-03-25T04:11:13.533Z,7.29
2019-03-25T04:12:13.526Z,7.31
2019-03-25T04:13:13.518Z,7.26
2019-03-25T04:14:13.503Z,7.39
2019-03-25T04:15:13.508Z,7.37
2019-03-25T04:16:13.494Z,7.39
2019-03-25T04:17:13.488Z,7.47
2019-03-25T04:18:13.502Z,7.48
2019-03-25T04:19:13.468Z,7.37
2019-03-25T04:20:13.554Z,7.48
2019-03-25T04:21:13.451Z,7.47
2019-03-25T04:22:13.455Z,7.5
2019-03-25T04:23:13.462Z,7.39
2019-03-25T04:24:13.422Z,7.33
2019-03-25T04:25:13.426Z,7.43
2019-03-25T04:26:27.548Z,7.37
2019-03-25T04:27:13.415Z,7.4
2019-03-25T04:28:13.401Z,7.39
2019-03-25T04:29:13.383Z,7.39
2019-03-25T04:30:13.418Z,7.47
2019-03-25T04:31:13.378Z,7.48
2019-03-25T04:32:13.371Z,7.46
2019-03-25T04:33:13.352Z,7.51
2019-03-25T04:34:13.356Z,7.46
2019-03-25T04:35:13.353Z,7.61
2019-03-25T04:36:13.325Z,7.61
2019-03-25T04:37:13.323Z,7.48
2019-03-25T04:38:13.316Z,7.48
2019-03-25T04:39:13.308Z,7.39
2019-03-25T04:40:13.306Z,7.36
2019-03-25T04:41:13.291Z,7.28
2019-03-25T04:42:13.287Z,7.33
2019-03-25T04:43:13.281Z,7.25
2019-03-25T04:44:13.262Z,7.21
2019-03-25T04:45:13.255Z,7.15
2019-03-25T04:46:13.247Z,7.14
2019-03-25T04:47:13.238Z,7.07
2019-03-25T04:48:13.238Z,7.05
2019-03-25T04:49:13.224Z,6.96
2019-03-25T04:50:13.275Z,7
2019-03-25T04:51:13.203Z,6.95
2019-03-25T04:52:13.501Z,6.93
2019-03-25T04:53:13.191Z,6.93
2019-03-25T04:54:13.185Z,6.9
2019-03-25T04:55:13.171Z,6.83
2019-03-25T04:56:13.165Z,6.85
2019-03-25T04:57:13.154Z,6.83
2019-03-25T04:58:12.898Z,6.77
2019-03-25T04:59:13.141Z,6.72
2019-03-25T05:00:13.156Z,6.74
2019-03-25T05:01:13.126Z,6.68
2019-03-25T05:02:13.120Z,6.82
2019-03-25T05:03:12.863Z,6.71
2019-03-25T05:04:13.109Z,6.67
2019-03-25T05:05:13.105Z,6.74
2019-03-25T05:06:13.082Z,6.68
2019-03-25T05:07:13.076Z,6.67
2019-03-25T05:08:13.065Z,6.57
2019-03-25T05:09:13.058Z,6.64
2019-03-25T05:10:13.052Z,6.49
2019-03-25T05:11:13.050Z,6.53
2019-03-25T05:12:13.034Z,6.57
2019-03-25T05:13:13.058Z,6.47
2019-03-25T05:14:13.019Z,6.53
2019-03-25T05:15:13.013Z,6.43
2019-03-25T05:16:13.003Z,6.36
2019-03-25T05:17:12.996Z,6.43
2019-03-25T05:18:13.003Z,6.44
2019-03-25T05:19:12.982Z,6.41
2019-03-25T05:20:12.973Z,6.31
2019-03-25T05:21:12.963Z,6.35
2019-03-25T05:22:13.636Z,6.31
2019-03-25T05:23:12.954Z,6.29
2019-03-25T05:24:12.946Z,6.31
2019-03-25T05:25:12.927Z,6.26
2019-03-25T05:26:12.920Z,6.38
2019-03-25T05:27:12.910Z,6.31
2019-03-25T05:28:12.654Z,6.26
2019-03-25T05:29:12.898Z,6.22
2019-03-25T05:30:12.886Z,6.25
2019-03-25T05:31:12.883Z,6.28
2019-03-25T05:32:12.880Z,6.25
2019-03-25T05:33:12.860Z,6.29
2019-03-25T05:34:12.855Z,6.25
2019-03-25T05:35:12.918Z,6.13
2019-03-25T05:36:12.838Z,6.13
2019-03-25T05:37:12.829Z,6.12
2019-03-25T05:38:12.830Z,6.12
2019-03-25T05:39:12.815Z,6.12
2019-03-25T05:40:12.807Z,6.05
2019-03-25T05:41:12.794Z,6.02
2019-03-25T05:42:12.790Z,6.01
2019-03-25T05:43:12.782Z,5.99
2019-03-25T05:44:12.773Z,6.07
2019-03-25T05:45:12.764Z,6.01
2019-03-25T05:46:12.757Z,6.05
2019-03-25T05:47:12.505Z,6.07
2019-03-25T05:48:12.737Z,6.07
2019-03-25T05:49:12.730Z,6.07
2019-03-25T05:50:14.052Z,6.07
2019-03-25T05:51:12.717Z,6.01
2019-03-25T05:52:12.715Z,5.92
2019-03-25T05:53:12.700Z,6.01
2019-03-25T05:54:12.994Z,5.98
2019-03-25T05:55:12.435Z,5.9
2019-03-25T05:56:12.679Z,5.92
2019-03-25T05:57:12.688Z,6.06
2019-03-25T05:58:12.656Z,5.91
2019-03-25T05:59:12.647Z,5.9
2019-03-25T06:00:12.650Z,5.95
2019-03-25T06:01:12.669Z,5.98
2019-03-25T06:02:12.657Z,5.94
2019-03-25T06:03:12.362Z,6.06
2019-03-25T06:04:12.614Z,6.01
2019-03-25T06:05:12.599Z,6.05
2019-03-25T06:06:12.605Z,6.07
2019-03-25T06:07:12.596Z,6.16
2019-03-25T06:08:12.584Z,6.16
2019-03-25T06:09:12.577Z,6.26
2019-03-25T06:10:12.560Z,6.31
2019-03-25T06:11:12.624Z,6.25
2019-03-25T06:12:12.554Z,6.26
2019-03-25T06:13:12.534Z,6.26
2019-03-25T06:14:12.526Z,6.31
2019-03-25T06:15:12.524Z,6.28
2019-03-25T06:16:12.511Z,6.29
2019-03-25T06:17:12.510Z,6.31
2019-03-25T06:18:12.496Z,6.25
2019-03-25T06:19:12.486Z,6.31
2019-03-25T06:20:12.479Z,6.26
2019-03-25T06:21:12.469Z,6.28
2019-03-25T06:22:12.463Z,6.32
2019-03-25T06:23:12.201Z,6.15
2019-03-25T06:24:13.601Z,6.26
2019-03-25T06:25:12.460Z,6.2
2019-03-25T06:26:12.430Z,6.28
2019-03-25T06:27:18.944Z,6.22
2019-03-25T06:28:12.414Z,6.29
2019-03-25T06:29:12.411Z,6.22
2019-03-25T06:30:12.399Z,6.31
2019-03-25T06:31:12.393Z,6.28
2019-03-25T06:32:12.378Z,6.22
2019-03-25T06:33:17.200Z,6.41
2019-03-25T06:34:12.363Z,6.34
2019-03-25T06:35:13.823Z,6.53
2019-03-25T06:36:12.345Z,6.53
2019-03-25T06:37:12.337Z,6.49
2019-03-25T06:38:12.330Z,6.57
2019-03-25T06:39:12.326Z,6.64
2019-03-25T06:40:12.312Z,6.68
2019-03-25T06:41:12.305Z,6.7
2019-03-25T06:42:12.299Z,6.8
2019-03-25T06:43:12.291Z,6.87
2019-03-25T06:44:12.281Z,6.9
2019-03-25T06:45:12.269Z,7.03
2019-03-25T06:46:12.323Z,7.11
2019-03-25T06:47:12.007Z,7.21
2019-03-25T06:48:12.247Z,7.29
2019-03-25T06:49:12.287Z,7.26
2019-03-25T06:50:12.234Z,7.29
2019-03-25T06:51:12.219Z,7.36
2019-03-25T06:52:12.222Z,7.37
2019-03-25T06:53:12.211Z,7.41
2019-03-25T06:54:12.201Z,7.44
2019-03-25T06:55:12.189Z,7.5
2019-03-25T06:56:12.184Z,7.43
2019-03-25T06:57:12.173Z,7.46
2019-03-25T06:58:12.163Z,7.48
2019-03-25T06:59:12.160Z,7.51
2019-03-25T07:00:12.174Z,7.61
2019-03-25T07:01:12.146Z,7.55
2019-03-25T07:02:12.134Z,7.56
2019-03-25T07:03:12.127Z,7.56
2019-03-25T07:04:12.118Z,7.58
2019-03-25T07:05:12.114Z,7.67
2019-03-25T07:06:12.110Z,7.77
2019-03-25T07:07:12.096Z,7.74
2019-03-25T07:08:12.084Z,7.81
2019-03-25T07:09:12.082Z,7.83
2019-03-25T07:10:12.074Z,7.85
2019-03-25T07:11:12.063Z,7.81
2019-03-25T07:12:12.106Z,7.81
2019-03-25T07:13:12.053Z,7.81
2019-03-25T07:14:12.034Z,7.87
2019-03-25T07:15:12.029Z,7.84
2019-03-25T07:16:12.030Z,7.84
2019-03-25T07:17:11.770Z,7.88
2019-03-25T07:18:11.751Z,7.88
2019-03-25T07:19:11.999Z,7.99
2019-03-25T07:20:11.992Z,7.95
2019-03-25T07:21:11.732Z,7.99
2019-03-25T07:22:11.973Z,7.98
2019-03-25T07:23:11.965Z,8.02
2019-03-25T07:24:11.705Z,7.98
2019-03-25T07:25:11.949Z,7.85
2019-03-25T07:26:11.939Z,7.87
2019-03-25T07:27:11.929Z,7.98
2019-03-25T07:28:11.928Z,8.01
2019-03-25T07:29:11.912Z,7.95
2019-03-25T07:30:13.936Z,7.93
2019-03-25T07:31:11.896Z,7.81
2019-03-25T07:32:13.890Z,7.84
2019-03-25T07:33:11.889Z,7.8
2019-03-25T07:34:11.877Z,7.78
2019-03-25T07:35:11.876Z,7.77
2019-03-25T07:36:11.858Z,7.85
2019-03-25T07:37:12.139Z,7.9
2019-03-25T07:38:11.848Z,7.95
2019-03-25T07:39:11.828Z,8.08
2019-03-25T07:40:11.823Z,7.99
2019-03-25T07:41:11.815Z,8.16
2019-03-25T07:42:11.812Z,8.09
2019-03-25T07:43:11.847Z,8.09
2019-03-25T07:44:13.565Z,8.06
2019-03-25T07:45:11.782Z,8.14
2019-03-25T07:46:11.772Z,8.21
2019-03-25T07:47:11.763Z,8.26
2019-03-25T07:48:11.753Z,8.26
2019-03-25T07:49:11.749Z,8.35
2019-03-25T07:50:11.738Z,8.31
2019-03-25T07:51:11.732Z,8.36
2019-03-25T07:52:11.971Z,8.44
2019-03-25T07:53:11.724Z,8.44
2019-03-25T07:54:11.481Z,8.44
2019-03-25T07:55:11.708Z,8.39
2019-03-25T07:56:11.706Z,8.45
2019-03-25T07:57:14.127Z,8.44
2019-03-25T07:58:11.733Z,8.45
2019-03-25T07:59:11.739Z,8.42
2019-03-25T08:00:18.349Z,8.45
2019-03-25T08:01:11.679Z,8.54
2019-03-25T08:02:11.670Z,8.54
2019-03-25T08:03:11.697Z,8.54
2019-03-25T08:04:11.624Z,8.53
2019-03-25T08:05:11.634Z,8.54
2019-03-25T08:06:11.656Z,8.53
2019-03-25T08:07:11.640Z,8.61
2019-03-25T08:08:12.348Z,8.52
2019-03-25T08:09:11.593Z,8.49
2019-03-25T08:10:11.617Z,8.52
2019-03-25T08:11:11.603Z,8.5
2019-03-25T08:12:11.591Z,8.6
2019-03-25T08:13:11.542Z,8.63
2019-03-25T08:14:11.603Z,8.66
2019-03-25T08:15:11.689Z,8.6
2019-03-25T08:16:11.558Z,8.63
2019-03-25T08:17:11.518Z,8.56
2019-03-25T08:18:11.508Z,8.54
2019-03-25T08:19:11.252Z,8.49
2019-03-25T08:20:11.245Z,8.45
2019-03-25T08:21:11.487Z,8.44
2019-03-25T08:22:11.475Z,8.41
2019-03-25T08:23:11.471Z,8.46
2019-03-25T08:24:11.218Z,8.53
2019-03-25T08:25:11.466Z,8.54
2019-03-25T08:26:11.470Z,8.41
2019-03-25T08:27:11.435Z,8.49
2019-03-25T08:28:11.436Z,8.46
2019-03-25T08:29:11.416Z,8.44
2019-03-25T08:30:11.409Z,8.46
2019-03-25T08:31:11.402Z,8.45
2019-03-25T08:32:11.393Z,8.46
2019-03-25T08:33:11.390Z,8.53
2019-03-25T08:34:11.375Z,8.6
2019-03-25T08:35:11.370Z,8.68
2019-03-25T08:36:11.360Z,8.69
2019-03-25T08:37:11.355Z,8.84
2019-03-25T08:38:11.347Z,8.89
2019-03-25T08:39:11.345Z,9.03
2019-03-25T08:40:11.330Z,9.03
2019-03-25T08:41:11.318Z,9.03
2019-03-25T08:42:11.311Z,9.21
2019-03-25T08:43:11.308Z,9.26
2019-03-25T08:44:11.042Z,9.3
2019-03-25T08:45:11.434Z,9.29
2019-03-25T08:46:11.276Z,9.37
2019-03-25T08:47:11.023Z,9.42
2019-03-25T08:48:11.256Z,9.37
2019-03-25T08:49:12.075Z,9.47
2019-03-25T08:50:11.248Z,9.4
2019-03-25T08:51:11.233Z,9.4
2019-03-25T08:52:11.230Z,9.42
2019-03-25T08:53:11.216Z,9.33
2019-03-25T08:54:10.954Z,9.45
2019-03-25T08:55:11.197Z,9.47
2019-03-25T08:56:11.192Z,9.51
2019-03-25T08:57:11.207Z,9.44
2019-03-25T08:58:17.103Z,9.55
2019-03-25T08:59:10.909Z,9.59
2019-03-25T09:00:11.160Z,9.69
2019-03-25T09:01:11.148Z,9.69
2019-03-25T09:02:11.133Z,9.77
2019-03-25T09:03:11.130Z,9.88
2019-03-25T09:04:11.155Z,9.97
2019-03-25T09:05:11.107Z,10
2019-03-25T09:06:11.097Z,10.03
2019-03-25T09:07:11.089Z,10.18
2019-03-25T09:08:11.082Z,10.25
2019-03-25T09:09:11.073Z,10.34
2019-03-25T09:10:11.064Z,10.49
2019-03-25T09:11:12.105Z,10.51
2019-03-25T09:12:10.792Z,10.39
2019-03-25T09:13:11.031Z,10.31
2019-03-25T09:14:11.036Z,10.43
2019-03-25T09:15:11.020Z,10.55
2019-03-25T09:16:11.061Z,10.58
2019-03-25T09:17:11.001Z,10.58
2019-03-25T09:18:10.995Z,10.58
2019-03-25T09:19:10.979Z,10.53
2019-03-25T09:20:10.977Z,10.62
2019-03-25T09:21:10.970Z,10.55
2019-03-25T09:22:10.960Z,10.45
2019-03-25T09:23:10.946Z,10.49
2019-03-25T09:24:10.935Z,10.62
2019-03-25T09:25:10.932Z,10.58
2019-03-25T09:26:10.919Z,10.65
2019-03-25T09:27:10.909Z,10.71
2019-03-25T09:28:10.899Z,10.68
2019-03-25T09:29:10.889Z,10.69
2019-03-25T09:30:10.889Z,10.83
2019-03-25T09:31:10.866Z,10.84
2019-03-25T09:32:11.067Z,10.83
2019-03-25T09:33:10.849Z,10.79
2019-03-25T09:34:10.840Z,10.9
2019-03-25T09:35:10.886Z,10.92
2019-03-25T09:36:10.940Z,11.02
2019-03-25T09:37:10.813Z,10.98
2019-03-25T09:38:10.803Z,10.95
2019-03-25T09:39:10.794Z,11.04
2019-03-25T09:40:10.783Z,11.05
2019-03-25T09:41:10.773Z,10.92
2019-03-25T09:42:10.777Z,10.77
2019-03-25T09:43:10.757Z,10.8
2019-03-25T09:44:10.745Z,10.72
2019-03-25T09:45:10.738Z,10.59
2019-03-25T09:46:10.731Z,10.28
2019-03-25T09:47:10.715Z,10.07
2019-03-25T09:48:10.455Z,9.94
2019-03-25T09:49:10.695Z,10
2019-03-25T09:50:10.690Z,9.87
2019-03-25T09:51:10.685Z,9.99
2019-03-25T09:52:10.700Z,10.03
2019-03-25T09:53:10.661Z,10
2019-03-25T09:54:10.645Z,9.95
2019-03-25T09:55:10.681Z,9.99
2019-03-25T09:56:10.627Z,10.06
2019-03-25T09:57:10.617Z,10.1
2019-03-25T09:58:10.650Z,10.24
2019-03-25T09:59:10.599Z,10.34
2019-03-25T10:00:10.586Z,10.49
2019-03-25T10:01:10.574Z,10.49
2019-03-25T10:02:10.565Z,10.43
2019-03-25T10:03:10.654Z,10.39
2019-03-25T10:04:10.545Z,10.39
2019-03-25T10:05:10.547Z,10.31
2019-03-25T10:06:10.528Z,10.13
2019-03-25T10:07:10.520Z,10.1
2019-03-25T10:08:10.508Z,9.92
2019-03-25T10:09:10.493Z,9.97
2019-03-25T10:10:10.487Z,9.91
2019-03-25T10:11:10.481Z,9.88
2019-03-25T10:12:10.476Z,9.81
2019-03-25T10:13:10.202Z,9.77
2019-03-25T10:14:10.451Z,9.76
2019-03-25T10:15:10.435Z,9.84
2019-03-25T10:16:10.470Z,9.8
2019-03-25T10:17:10.415Z,9.69
2019-03-25T10:18:10.405Z,9.56
2019-03-25T10:19:12.734Z,9.52
2019-03-25T10:20:10.395Z,9.44
2019-03-25T10:21:10.386Z,9.47
2019-03-25T10:22:10.366Z,9.45
2019-03-25T10:23:10.362Z,9.4
2019-03-25T10:24:10.416Z,9.51
2019-03-25T10:25:10.080Z,9.29
2019-03-25T10:26:10.321Z,9.29
2019-03-25T10:27:10.062Z,9.27
2019-03-25T10:28:10.299Z,9.29
2019-03-25T10:29:10.299Z,9.37
2019-03-25T10:30:10.283Z,9.36
2019-03-25T10:31:10.273Z,9.33
2019-03-25T10:32:10.011Z,9.48
2019-03-25T10:33:10.251Z,9.54
2019-03-25T10:34:10.394Z,9.45
2019-03-25T10:35:09.980Z,9.55
2019-03-25T10:36:10.218Z,9.54
2019-03-25T10:37:10.236Z,9.56
2019-03-25T10:38:21.530Z,9.59
2019-03-25T10:39:10.224Z,9.58
2019-03-25T10:40:10.179Z,9.52
2019-03-25T10:41:10.164Z,9.54
2019-03-25T10:42:10.214Z,9.44
2019-03-25T10:43:10.145Z,9.47
2019-03-25T10:44:10.133Z,9.4
2019-03-25T10:45:10.122Z,9.48
2019-03-25T10:46:10.112Z,9.64
2019-03-25T10:47:09.855Z,9.81
2019-03-25T10:48:10.096Z,9.9
2019-03-25T10:49:10.086Z,10.02
2019-03-25T10:50:10.131Z,10.13
2019-03-25T10:51:09.814Z,10.17
2019-03-25T10:52:10.048Z,10.15
2019-03-25T10:53:10.069Z,10.25
2019-03-25T10:54:10.044Z,10.31
2019-03-25T10:55:12.547Z,10.23
2019-03-25T10:56:10.013Z,10.2
2019-03-25T10:57:09.998Z,10.17
2019-03-25T10:58:09.987Z,10.3
2019-03-25T10:59:09.975Z,10.34
2019-03-25T11:00:09.968Z,10.45
2019-03-25T11:01:11.937Z,10.58
2019-03-25T11:02:09.952Z,10.57
2019-03-25T11:03:09.936Z,10.55
2019-03-25T11:04:09.924Z,10.53
2019-03-25T11:05:09.919Z,10.62
2019-03-25T11:06:09.903Z,10.55
2019-03-25T11:07:10.068Z,10.62
2019-03-25T11:08:09.882Z,10.49
2019-03-25T11:09:09.872Z,10.61
2019-03-25T11:10:09.864Z,10.68
2019-03-25T11:11:10.971Z,10.72
2019-03-25T11:12:09.840Z,10.76
2019-03-25T11:13:09.580Z,10.68
2019-03-25T11:14:09.822Z,10.64
2019-03-25T11:15:09.808Z,10.72
2019-03-25T11:16:10.376Z,10.79
2019-03-25T11:17:09.788Z,10.84
2019-03-25T11:18:10.709Z,10.89
2019-03-25T11:19:09.772Z,10.89
2019-03-25T11:20:09.760Z,10.87
2019-03-25T11:21:09.756Z,10.87
2019-03-25T11:22:09.739Z,10.9
2019-03-25T11:23:09.728Z,10.86
2019-03-25T11:24:09.717Z,10.87
2019-03-25T11:25:09.723Z,10.79
2019-03-25T11:26:09.696Z,10.82
2019-03-25T11:27:09.689Z,10.82
2019-03-25T11:28:09.673Z,10.83
2019-03-25T11:29:13.591Z,10.95
2019-03-25T11:30:10.539Z,10.95
2019-03-25T11:31:09.646Z,10.94
2019-03-25T11:32:09.657Z,11.04
2019-03-25T11:33:09.628Z,11.04
2019-03-25T11:34:09.614Z,11.05
2019-03-25T11:35:10.535Z,11.02
2019-03-25T11:36:09.636Z,11.02
2019-03-25T11:37:09.584Z,11.2
2019-03-25T11:38:09.577Z,11.31
2019-03-25T11:39:09.567Z,11.31
2019-03-25T11:40:09.562Z,11.35
2019-03-25T11:41:09.545Z,11.38
2019-03-25T11:42:10.324Z,11.35
2019-03-25T11:43:09.529Z,11.34
2019-03-25T11:44:09.517Z,11.25
2019-03-25T11:45:09.510Z,11.25
2019-03-25T11:46:09.496Z,11.02
2019-03-25T11:47:09.487Z,10.94
2019-03-25T11:48:09.475Z,10.87
2019-03-25T11:49:09.491Z,10.62
2019-03-25T11:50:09.460Z,10.42
2019-03-25T11:51:09.197Z,10.17
2019-03-25T11:52:09.184Z,10.02
2019-03-25T11:53:09.423Z,9.85
2019-03-25T11:54:09.416Z,9.67
2019-03-25T11:55:09.410Z,9.67
2019-03-25T11:56:09.402Z,9.67
2019-03-25T11:57:09.405Z,9.58
2019-03-25T11:58:09.372Z,9.56
2019-03-25T11:59:18.241Z,9.62
2019-03-25T12:00:09.362Z,9.59
2019-03-25T12:01:09.344Z,9.59
2019-03-25T12:02:17.204Z,9.54
2019-03-25T12:03:09.321Z,9.49
2019-03-25T12:04:10.561Z,9.47
2019-03-25T12:05:09.316Z,9.47
2019-03-25T12:06:09.297Z,9.4
2019-03-25T12:07:09.285Z,9.39
2019-03-25T12:08:09.279Z,9.39
2019-03-25T12:09:09.266Z,9.33
2019-03-25T12:10:09.250Z,9.34
2019-03-25T12:11:09.245Z,9.39
2019-03-25T12:12:09.234Z,9.42
2019-03-25T12:13:09.500Z,9.47
2019-03-25T12:14:08.957Z,9.44
2019-03-25T12:15:09.209Z,9.4
2019-03-25T12:16:08.971Z,9.36
2019-03-25T12:17:08.939Z,9.4
2019-03-25T12:18:09.170Z,9.33
2019-03-25T12:19:09.158Z,9.31
2019-03-25T12:20:09.155Z,9.34
2019-03-25T12:21:09.143Z,9.39
2019-03-25T12:22:09.131Z,9.36
2019-03-25T12:23:09.119Z,9.47
2019-03-25T12:24:09.106Z,9.47
2019-03-25T12:25:09.107Z,9.44
2019-03-25T12:26:09.089Z,9.55
2019-03-25T12:27:09.079Z,9.58
2019-03-25T12:28:09.067Z,9.62
2019-03-25T12:29:09.060Z,9.56
2019-03-25T12:30:09.073Z,9.51
2019-03-25T12:31:09.035Z,9.47
2019-03-25T12:32:08.771Z,9.42
2019-03-25T12:33:09.363Z,9.4
2019-03-25T12:34:09.069Z,9.56
2019-03-25T12:35:08.991Z,9.69
2019-03-25T12:36:08.993Z,9.97
2019-03-25T12:37:08.974Z,10.15
2019-03-25T12:38:08.962Z,10.31
2019-03-25T12:39:08.706Z,10.28
2019-03-25T12:40:10.356Z,10.41
2019-03-25T12:41:08.944Z,10.48
2019-03-25T12:42:08.926Z,10.3
2019-03-25T12:43:08.915Z,10.23
2019-03-25T12:44:08.902Z,10.21
2019-03-25T12:45:08.909Z,10.07
2019-03-25T12:46:08.893Z,10.03
2019-03-25T12:47:08.876Z,9.94
2019-03-25T12:48:08.870Z,9.92
2019-03-25T12:49:08.605Z,10.05
2019-03-25T12:50:08.844Z,10.05
2019-03-25T12:51:08.835Z,10.15
2019-03-25T12:52:08.829Z,10.17
2019-03-25T12:53:08.816Z,10.34
2019-03-25T12:54:08.816Z,10.3
2019-03-25T12:55:08.810Z,10.3
2019-03-25T12:56:08.536Z,10.24
2019-03-25T12:57:08.777Z,10.31
2019-03-25T12:58:10.105Z,10.43
2019-03-25T12:59:08.504Z,10.55
2019-03-25T13:00:08.746Z,10.76
2019-03-25T13:01:08.786Z,10.92
2019-03-25T13:02:08.738Z,11.01
2019-03-25T13:03:08.727Z,11.23
2019-03-25T13:04:08.706Z,11.12
2019-03-25T13:05:08.706Z,11.05
2019-03-25T13:06:08.712Z,10.94
2019-03-25T13:07:08.684Z,11.08
2019-03-25T13:08:08.672Z,11.13
2019-03-25T13:09:08.427Z,11.26
2019-03-25T13:10:08.752Z,11.16
2019-03-25T13:11:08.641Z,11.15
2019-03-25T13:12:08.636Z,11.1
2019-03-25T13:13:08.636Z,11.1
2019-03-25T13:14:08.364Z,11.27
2019-03-25T13:15:08.603Z,11.35